createdAt,value
2019-04-04T00:00:39.083Z,10.30
2019-04-04T00:05:46.197Z,10.40
2019-04-04T00:10:54.218Z,10.40
2019-04-04T00:16:00.311Z,10.30
2019-04-04T00:21:08.098Z,10.20
2019-04-04T00:26:16.098Z,10.30
2019-04-04T00:31:22.902Z,10.30
2019-04-04T00:36:33.755Z,10.20
2019-04-04T00:41:44.589Z,10.00
2019-04-04T00:46:50.137Z,9.90
2019-04-04T00:51:58.584Z,9.60
2019-04-04T00:57:05.585Z,9.50
2019-04-04T01:02:13.434Z,9.40
2019-04-04T01:07:22.840Z,8.70
2019-04-04T01:12:30.539Z,9.10
2019-04-04T01:17:39.376Z,9.10
2019-04-04T01:22:47.825Z,8.90
2019-04-04T01:27:56.452Z,8.60
2019-04-04T01:33:03.914Z,8.60
2019-04-04T01:38:10.974Z,8.40
2019-04-04T01:43:17.653Z,8.20
2019-04-04T01:48:27.260Z,7.80
2019-04-04T01:53:35.628Z,7.80
2019-04-04T01:58:45.305Z,7.60
2019-04-04T02:03:53.683Z,7.50
2019-04-04T02:09:02.961Z,7.50
2019-04-04T02:14:11.906Z,7.40
2019-04-04T02:19:19.679Z,7.50
2019-04-04T02:24:27.539Z,7.30
2019-04-04T02:29:34.836Z,6.90
2019-04-04T02:34:41.750Z,7.10
2019-04-04T02:39:50.353Z,7.10
2019-04-04T02:44:58.474Z,7.00
2019-04-04T02:50:06.511Z,6.90
2019-04-04T02:55:13.307Z,6.70
2019-04-04T03:00:20.800Z,6.50
2019-04-04T03:05:27.858Z,6.20
2019-04-04T03:10:34.996Z,6.10
2019-04-04T03:15:54.128Z,6.30
2019-04-04T03:21:02.617Z,6.30
2019-04-04T03:26:11.092Z,6.40
2019-04-04T03:31:18.252Z,6.30
2019-04-04T03:36:26.559Z,6.00
2019-04-04T03:41:35.799Z,6.00
2019-04-04T03:46:43.503Z,6.00
2019-04-04T03:51:50.006Z,5.80
2019-04-04T03:56:59.297Z,5.70
2019-04-04T04:02:06.360Z,5.70
2019-04-04T04:07:15.542Z,5.60
2019-04-04T04:12:22.457Z,5.70
2019-04-04T04:17:31.120Z,5.60
2019-04-04T04:22:40.469Z,5.50
2019-04-04T04:27:48.573Z,5.30
2019-04-04T04:32:57.502Z,5.30
2019-04-04T04:38:04.816Z,5.20
2019-04-04T04:43:15.483Z,5.10
2019-04-04T04:48:25.788Z,5.00
2019-04-04T04:53:32.760Z,4.90
2019-04-04T04:58:42.136Z,4.80
2019-04-04T05:03:50.949Z,4.70
2019-04-04T05:08:58.387Z,4.70
2019-04-04T05:14:04.563Z,4.60
2019-04-04T05:19:14.119Z,4.50
2019-04-04T05:24:21.828Z,4.50
2019-04-04T05:29:29.851Z,4.40
2019-04-04T05:34:37.496Z,4.50
2019-04-04T05:39:47.060Z,4.50
2019-04-04T05:44:55.966Z,4.80
2019-04-04T05:50:04.941Z,5.00
2019-04-04T05:55:12.380Z,5.30
2019-04-04T06:00:20.809Z,5.60
2019-04-04T06:05:27.912Z,5.90
2019-04-04T06:10:35.113Z,6.10
2019-04-04T06:15:42.246Z,6.50
2019-04-04T06:20:49.631Z,6.90
2019-04-04T06:25:55.910Z,7.30
2019-04-04T06:31:26.203Z,7.50
2019-04-04T06:36:31.939Z,8.00
2019-04-04T06:41:38.402Z,8.50
2019-04-04T06:46:47.587Z,8.70
2019-04-04T06:52:18.316Z,9.00
2019-04-04T06:57:25.811Z,9.40
2019-04-04T07:02:33.323Z,9.70
2019-04-04T07:07:43.162Z,9.70
2019-04-04T07:12:51.297Z,9.80
2019-04-04T07:17:57.395Z,9.90
2019-04-04T07:23:04.696Z,9.80
2019-04-04T07:28:13.727Z,10.10
2019-04-04T07:33:21.555Z,10.20
2019-04-04T07:38:31.304Z,10.50
2019-04-04T07:43:39.500Z,10.80
2019-04-04T07:48:46.514Z,11.00
2019-04-04T07:53:54.926Z,11.50
2019-04-04T07:59:02.888Z,11.90
2019-04-04T08:04:10.267Z,12.40
2019-04-04T08:09:19.117Z,12.70
2019-04-04T08:14:27.434Z,12.90
2019-04-04T08:19:33.624Z,13.00
2019-04-04T08:24:40.528Z,13.30
2019-04-04T08:29:48.686Z,13.50
2019-04-04T08:34:56.921Z,13.80
2019-04-04T08:40:05.317Z,13.80
2019-04-04T08:45:13.210Z,14.10
2019-04-04T08:50:22.579Z,13.90
2019-04-04T08:55:30.585Z,14.30
2019-04-04T09:00:38.903Z,14.40
2019-04-04T09:05:47.237Z,15.10
2019-04-04T09:10:55.444Z,15.20
2019-04-04T09:16:03.054Z,15.50
2019-04-04T09:21:10.903Z,15.90
2019-04-04T09:26:19.859Z,16.10
2019-04-04T09:31:27.782Z,15.50
2019-04-04T09:36:36.181Z,16.50
2019-04-04T09:41:43.869Z,16.40
2019-04-04T09:47:04.837Z,16.70
2019-04-04T09:52:02.153Z,16.90
2019-04-04T09:57:08.768Z,17.40
2019-04-04T10:02:17.703Z,17.70
2019-04-04T10:07:26.866Z,17.80
2019-04-04T10:12:35.668Z,17.90
2019-04-04T10:17:44.019Z,18.50
2019-04-04T10:22:50.918Z,18.80
2019-04-04T10:27:58.314Z,18.90
2019-04-04T10:33:05.507Z,18.80
2019-04-04T10:38:13.271Z,19.30
2019-04-04T10:43:21.117Z,18.70
2019-04-04T10:48:27.701Z,18.90
2019-04-04T10:53:36.290Z,18.70
2019-04-04T10:58:44.426Z,18.90
2019-04-04T11:03:52.739Z,19.20
2019-04-04T11:08:59.069Z,18.90
2019-04-04T11:14:07.566Z,18.70
2019-04-04T11:19:15.576Z,18.70
2019-04-04T11:24:23.623Z,18.90
2019-04-04T11:29:31.151Z,19.00
2019-04-04T11:34:52.352Z,19.00
2019-04-04T11:39:54.481Z,18.90
2019-04-04T11:44:57.080Z,18.90
2019-04-04T11:50:05.193Z,18.60
2019-04-04T11:55:12.313Z,18.90
2019-04-04T12:00:24.100Z,19.30
2019-04-04T12:05:31.922Z,19.40
2019-04-04T12:10:37.995Z,19.70
2019-04-04T12:15:44.538Z,20.00
2019-04-04T12:20:52.529Z,19.90
2019-04-04T12:26:01.218Z,19.50
2019-04-04T12:31:09.414Z,19.60
2019-04-04T12:36:24.423Z,19.50
2019-04-04T12:41:28.318Z,19.30
2019-04-04T12:46:34.645Z,19.60
2019-04-04T12:51:42.341Z,19.80
2019-04-04T12:56:50.070Z,19.60
2019-04-04T13:01:57.783Z,19.40
2019-04-04T13:07:07.729Z,19.90
2019-04-04T13:12:14.693Z,19.20
2019-04-04T13:17:22.973Z,19.50
2019-04-04T13:22:31.280Z,19.70
2019-04-04T13:27:39.940Z,19.90
2019-04-04T13:32:47.950Z,20.00
2019-04-04T13:37:56.270Z,19.50
2019-04-04T13:43:03.286Z,19.50
2019-04-04T13:48:12.796Z,19.70
2019-04-04T13:53:25.181Z,20.00
2019-04-04T13:58:29.479Z,20.10
2019-04-04T14:03:35.655Z,19.80
2019-04-04T14:08:45.705Z,19.80
2019-04-04T14:13:52.403Z,19.70
2019-04-04T14:18:58.472Z,19.60
2019-04-04T14:24:13.091Z,19.80
2019-04-04T14:29:26.686Z,19.50
2019-04-04T14:34:24.516Z,19.70
2019-04-04T14:39:32.386Z,19.50
2019-04-04T14:44:40.408Z,19.90
2019-04-04T14:49:49.550Z,19.60
2019-04-04T14:54:56.245Z,19.50
2019-04-04T15:00:05.422Z,19.50
2019-04-04T15:05:14.860Z,19.40
2019-04-04T15:10:23.136Z,19.30
2019-04-04T15:15:31.218Z,19.30
2019-04-04T15:20:40.134Z,19.60
2019-04-04T15:25:46.892Z,19.20
2019-04-04T15:30:55.657Z,19.30
2019-04-04T15:36:03.559Z,19.40
2019-04-04T15:41:12.955Z,19.30
2019-04-04T15:46:21.163Z,19.20
2019-04-04T15:51:29.118Z,19.60
2019-04-04T15:56:38.028Z,19.70
2019-04-04T16:01:46.431Z,19.70
2019-04-04T16:06:54.346Z,19.50
2019-04-04T16:12:00.430Z,19.60
2019-04-04T16:17:08.083Z,19.80
2019-04-04T16:22:16.266Z,19.60
2019-04-04T16:27:24.938Z,19.40
2019-04-04T16:32:33.691Z,19.20
2019-04-04T16:37:41.755Z,19.20
2019-04-04T16:42:52.207Z,19.20
2019-04-04T16:48:01.130Z,19.20
2019-04-04T16:53:08.377Z,19.10
2019-04-04T16:58:17.010Z,19.40
2019-04-04T17:03:26.156Z,19.20
2019-04-04T17:08:33.504Z,18.80
2019-04-04T17:13:41.707Z,18.90
2019-04-04T17:18:48.892Z,18.50
2019-04-04T17:23:56.806Z,18.10
2019-04-04T17:29:04.281Z,18.20
2019-04-04T17:34:14.772Z,17.90
2019-04-04T17:39:23.307Z,17.80
2019-04-04T17:44:30.108Z,17.70
2019-04-04T17:49:37.733Z,17.40
2019-04-04T17:54:48.731Z,17.20
2019-04-04T17:59:56.629Z,16.90
2019-04-04T18:05:03.913Z,16.70
2019-04-04T18:10:13.099Z,16.50
2019-04-04T18:15:21.377Z,16.30
2019-04-04T18:20:30.684Z,15.90
2019-04-04T18:25:39.170Z,15.70
2019-04-04T18:30:48.050Z,15.60
2019-04-04T18:35:56.811Z,15.40
2019-04-04T18:41:05.791Z,15.30
2019-04-04T18:46:14.454Z,15.30
2019-04-04T18:51:24.849Z,15.00
2019-04-04T18:56:32.851Z,15.00
2019-04-04T19:01:40.009Z,14.90
2019-04-04T19:06:48.637Z,14.80
2019-04-04T19:11:56.620Z,14.50
2019-04-04T19:17:05.622Z,14.40
2019-04-04T19:22:16.258Z,14.40
2019-04-04T19:27:24.456Z,14.30
2019-04-04T19:32:35.258Z,14.10
2019-04-04T19:37:42.237Z,13.80
2019-04-04T19:42:50.619Z,13.60
2019-04-04T19:47:58.016Z,13.30
2019-04-04T19:53:06.092Z,13.20
2019-04-04T19:58:14.510Z,13.10
2019-04-04T20:03:22.703Z,13.00
2019-04-04T20:08:31.051Z,13.00
2019-04-04T20:13:39.323Z,12.90
2019-04-04T20:18:47.416Z,12.70
2019-04-04T20:23:55.007Z,12.50
2019-04-04T20:29:02.518Z,12.30
2019-04-04T20:34:11.339Z,12.20
2019-04-04T20:39:21.511Z,12.10
2019-04-04T20:44:29.128Z,11.80
2019-04-04T20:49:36.874Z,11.60
2019-04-04T20:54:45.697Z,11.50
2019-04-04T20:59:53.513Z,11.30
2019-04-04T21:05:01.428Z,11.00
2019-04-04T21:10:11.679Z,10.80
2019-04-04T21:15:20.013Z,10.60
2019-04-04T21:20:26.693Z,10.60
2019-04-04T21:25:34.436Z,10.40
2019-04-04T21:30:41.408Z,9.90
2019-04-04T21:35:48.512Z,9.80
2019-04-04T21:40:56.314Z,9.90
2019-04-04T21:46:04.325Z,9.60
2019-04-04T21:51:11.031Z,9.20
2019-04-04T21:56:19.165Z,9.20
2019-04-04T22:01:27.808Z,9.10
2019-04-04T22:06:33.859Z,8.90
2019-04-04T22:11:39.937Z,9.10
2019-04-04T22:16:47.651Z,9.00
2019-04-04T22:21:54.341Z,8.80
2019-04-04T22:27:03.989Z,8.80
2019-04-04T22:32:12.137Z,8.80
2019-04-04T22:37:20.480Z,8.90
2019-04-04T22:42:27.592Z,8.70
2019-04-04T23:09:27.318Z,8.10
2019-04-04T23:14:46.943Z,8.00
2019-04-04T23:19:43.143Z,8.00
2019-04-04T23:24:50.130Z,8.00
2019-04-04T23:29:56.819Z,7.90
2019-04-04T23:35:03.499Z,8.10
2019-04-04T23:40:10.278Z,8.10
2019-04-04T23:45:16.828Z,7.90
2019-04-04T23:50:23.474Z,7.90
2019-04-04T23:55:29.899Z,7.90
